Townsend, MT (59644)

9:26 AM MDT on August 04, 2015 (GMT -0600)
Silos Recreation Area | | Change Station
CLOSE
Current Station
Personal Weather Station
Location: Townsend, Mt
Elevation: 3860 ft
Nearby Weather Stations

Elev 3860 ft 46.41 °N, 111.58 °W | Updated 17 seconds ago

Overcast
Overcast
72.5 °F
Feels Like 75 °F
N
3.5
Wind Variable Wind from ENE
Gusts 7.6 mph

Today
High -- | Low -- °F
--% Chance of Precip.
Yesterday
High -- | Low -- °F
Precip. -- in
6:10 AM 8:52 PM
Waning Gibbous, 77% visible
Pressure 29.88 in
Visibility 10.0 miles
Clouds Few 9500 ft
Heat Index 75 °F
Dew Point 60 °F
Humidity 66%
Rainfall 0.00 in
Snow Depth Not available.
UV 2 out of 12
Pollen 5.10 out of 12
Air Quality Not available.
Flu Activity Not available.
METAR KHLN 041453Z 34005KT 10SM FEW095 24/09 A2997 RMK AO2 SLP117 60000 T02390089 53006

More Conditions Fewer Conditions

Pressure 29.88 in
Visibility 10.0 miles
Clouds Few 9500 ft
Heat Index 75 °F
Dew Point 60 °F
Humidity 66%
Rainfall 0.00 in
Snow Depth Not available.
UV 2 out of 12
Pollen 5.10 out of 12
Air Quality Not available.
Flu Activity Not available.
METAR KHLN 041453Z 34005KT 10SM FEW095 24/09 A2997 RMK AO2 SLP117 60000 T02390089 53006

More Conditions Fewer Conditions

10-Day Weather Forecast

×

Almanac

Astronomy

Aug. 04, 2015 Rise Set
Actual Time
Civil Twilight
Nautical Twilight
Astronomical Twilight
Moon
Length of Visible Light
Length of Day
Tomorrow will be .
, % of the Moon is Illuminated

Today's Extremes

State Highs State Lows

Community

WunderPhotos

Upload Photos

1,843,906 photos uploaded!

WunderBlogs® & News

Nearby

Air Quality

  Air Quality AQ Index Pollutant
Not available.

Snow Depth

Station Depth Elevation

Earthquake Activity

City Distance Mag. Time & Date
Minimum magnitude displayed is 2.5.

Coastal Water Temperatures

Place Temperature

Stations

Nearby Weather Stations

Station Location Temp. Windchill Dew Point Humidity Wind Precip. Elev Updated Type